sensor_id;sensor_type;location;lat;lon;timestamp;P1;durP1;ratioP1;P2;durP2;ratioP2
2896;SDS011;1458;49.728;9.228;2023-04-08T00:00:13;0.40;;;0.40;;
2896;SDS011;1458;49.728;9.228;2023-04-08T00:02:41;0.30;;;0.30;;
2896;SDS011;1458;49.728;9.228;2023-04-08T00:05:08;0.30;;;0.30;;
2896;SDS011;1458;49.728;9.228;2023-04-08T00:07:35;0.40;;;0.40;;
2896;SDS011;1458;49.728;9.228;2023-04-08T00:10:03;0.40;;;0.40;;
2896;SDS011;1458;49.728;9.228;2023-04-08T00:12:32;0.37;;;0.37;;
2896;SDS011;1458;49.728;9.228;2023-04-08T00:15:00;0.30;;;0.30;;
2896;SDS011;1458;49.728;9.228;2023-04-08T00:17:29;0.30;;;0.30;;
2896;SDS011;1458;49.728;9.228;2023-04-08T00:19:57;0.40;;;0.40;;
2896;SDS011;1458;49.728;9.228;2023-04-08T00:22:24;0.40;;;0.40;;
2896;SDS011;1458;49.728;9.228;2023-04-08T00:24:52;0.30;;;0.30;;
2896;SDS011;1458;49.728;9.228;2023-04-08T00:27:19;0.30;;;0.30;;
2896;SDS011;1458;49.728;9.228;2023-04-08T00:29:49;0.30;;;0.30;;
2896;SDS011;1458;49.728;9.228;2023-04-08T00:32:16;0.30;;;0.30;;
2896;SDS011;1458;49.728;9.228;2023-04-08T00:34:45;0.30;;;0.30;;
2896;SDS011;1458;49.728;9.228;2023-04-08T00:37:13;0.30;;;0.30;;
2896;SDS011;1458;49.728;9.228;2023-04-08T00:39:40;0.30;;;0.30;;
2896;SDS011;1458;49.728;9.228;2023-04-08T00:42:08;0.40;;;0.40;;
2896;SDS011;1458;49.728;9.228;2023-04-08T00:44:35;0.40;;;0.40;;
2896;SDS011;1458;49.728;9.228;2023-04-08T00:47:03;0.30;;;0.30;;
2896;SDS011;1458;49.728;9.228;2023-04-08T00:49:32;0.43;;;0.43;;
2896;SDS011;1458;49.728;9.228;2023-04-08T00:52:01;0.40;;;0.40;;
2896;SDS011;1458;49.728;9.228;2023-04-08T00:54:29;0.30;;;0.30;;
2896;SDS011;1458;49.728;9.228;2023-04-08T00:56:57;0.37;;;0.37;;
2896;SDS011;1458;49.728;9.228;2023-04-08T00:59:25;0.40;;;0.40;;
2896;SDS011;1458;49.728;9.228;2023-04-08T01:01:55;0.40;;;0.40;;
2896;SDS011;1458;49.728;9.228;2023-04-08T01:04:36;0.40;;;0.40;;
2896;SDS011;1458;49.728;9.228;2023-04-08T01:07:14;0.40;;;0.40;;
2896;SDS011;1458;49.728;9.228;2023-04-08T01:09:46;0.33;;;0.33;;
2896;SDS011;1458;49.728;9.228;2023-04-08T01:12:25;0.30;;;0.30;;
2896;SDS011;1458;49.728;9.228;2023-04-08T01:14:56;0.30;;;0.30;;
2896;SDS011;1458;49.728;9.228;2023-04-08T01:17:27;0.40;;;0.40;;
2896;SDS011;1458;49.728;9.228;2023-04-08T01:19:56;0.30;;;0.30;;
2896;SDS011;1458;49.728;9.228;2023-04-08T01:22:31;0.50;;;0.50;;
2896;SDS011;1458;49.728;9.228;2023-04-08T01:25:07;0.50;;;0.50;;
2896;SDS011;1458;49.728;9.228;2023-04-08T01:27:42;0.40;;;0.40;;
2896;SDS011;1458;49.728;9.228;2023-04-08T01:30:11;0.30;;;0.30;;
2896;SDS011;1458;49.728;9.228;2023-04-08T01:32:39;0.33;;;0.33;;
2896;SDS011;1458;49.728;9.228;2023-04-08T01:35:09;0.40;;;0.40;;
2896;SDS011;1458;49.728;9.228;2023-04-08T01:37:37;0.30;;;0.30;;
2896;SDS011;1458;49.728;9.228;2023-04-08T01:40:08;0.40;;;0.40;;
2896;SDS011;1458;49.728;9.228;2023-04-08T01:42:37;0.40;;;0.40;;
2896;SDS011;1458;49.728;9.228;2023-04-08T01:45:07;0.40;;;0.40;;
2896;SDS011;1458;49.728;9.228;2023-04-08T01:47:38;0.40;;;0.40;;
2896;SDS011;1458;49.728;9.228;2023-04-08T01:50:09;0.40;;;0.40;;
2896;SDS011;1458;49.728;9.228;2023-04-08T01:52:39;0.40;;;0.40;;
2896;SDS011;1458;49.728;9.228;2023-04-08T01:55:11;0.30;;;0.30;;
2896;SDS011;1458;49.728;9.228;2023-04-08T01:57:38;0.30;;;0.30;;
2896;SDS011;1458;49.728;9.228;2023-04-08T02:00:12;0.30;;;0.30;;
2896;SDS011;1458;49.728;9.228;2023-04-08T02:02:45;0.30;;;0.30;;
2896;SDS011;1458;49.728;9.228;2023-04-08T02:05:15;0.30;;;0.30;;
2896;SDS011;1458;49.728;9.228;2023-04-08T02:07:42;0.30;;;0.30;;
2896;SDS011;1458;49.728;9.228;2023-04-08T02:10:11;0.30;;;0.30;;
2896;SDS011;1458;49.728;9.228;2023-04-08T02:12:40;0.40;;;0.40;;
2896;SDS011;1458;49.728;9.228;2023-04-08T02:15:13;0.30;;;0.30;;
2896;SDS011;1458;49.728;9.228;2023-04-08T02:17:42;0.30;;;0.30;;
2896;SDS011;1458;49.728;9.228;2023-04-08T02:20:18;0.40;;;0.40;;
2896;SDS011;1458;49.728;9.228;2023-04-08T02:22:53;0.40;;;0.40;;
2896;SDS011;1458;49.728;9.228;2023-04-08T02:25:32;0.40;;;0.40;;
2896;SDS011;1458;49.728;9.228;2023-04-08T02:28:03;0.40;;;0.40;;
2896;SDS011;1458;49.728;9.228;2023-04-08T02:30:36;0.37;;;0.37;;
2896;SDS011;1458;49.728;9.228;2023-04-08T02:33:09;0.30;;;0.30;;
2896;SDS011;1458;49.728;9.228;2023-04-08T02:35:38;0.30;;;0.30;;
2896;SDS011;1458;49.728;9.228;2023-04-08T02:38:08;0.40;;;0.40;;
2896;SDS011;1458;49.728;9.228;2023-04-08T02:40:36;0.40;;;0.40;;
2896;SDS011;1458;49.728;9.228;2023-04-08T02:43:03;0.40;;;0.40;;
2896;SDS011;1458;49.728;9.228;2023-04-08T02:45:32;0.40;;;0.40;;
2896;SDS011;1458;49.728;9.228;2023-04-08T02:48:04;0.40;;;0.40;;
2896;SDS011;1458;49.728;9.228;2023-04-08T02:50:35;0.33;;;0.33;;
2896;SDS011;1458;49.728;9.228;2023-04-08T02:53:04;0.30;;;0.30;;
2896;SDS011;1458;49.728;9.228;2023-04-08T02:55:32;0.50;;;0.50;;
2896;SDS011;1458;49.728;9.228;2023-04-08T02:58:00;0.30;;;0.30;;
2896;SDS011;1458;49.728;9.228;2023-04-08T03:00:27;0.30;;;0.30;;
2896;SDS011;1458;49.728;9.228;2023-04-08T03:02:58;0.40;;;0.40;;
2896;SDS011;1458;49.728;9.228;2023-04-08T03:05:26;0.40;;;0.40;;
2896;SDS011;1458;49.728;9.228;2023-04-08T03:07:53;0.30;;;0.30;;
2896;SDS011;1458;49.728;9.228;2023-04-08T03:10:21;0.30;;;0.30;;
2896;SDS011;1458;49.728;9.228;2023-04-08T03:12:48;0.40;;;0.40;;
2896;SDS011;1458;49.728;9.228;2023-04-08T03:15:16;0.40;;;0.40;;
2896;SDS011;1458;49.728;9.228;2023-04-08T03:17:43;0.40;;;0.40;;
2896;SDS011;1458;49.728;9.228;2023-04-08T03:20:12;0.50;;;0.50;;
2896;SDS011;1458;49.728;9.228;2023-04-08T03:22:39;0.30;;;0.30;;
2896;SDS011;1458;49.728;9.228;2023-04-08T03:25:09;0.30;;;0.30;;
2896;SDS011;1458;49.728;9.228;2023-04-08T03:27:36;0.40;;;0.40;;
2896;SDS011;1458;49.728;9.228;2023-04-08T03:30:04;0.30;;;0.30;;
2896;SDS011;1458;49.728;9.228;2023-04-08T03:32:36;0.40;;;0.40;;
2896;SDS011;1458;49.728;9.228;2023-04-08T03:35:04;0.30;;;0.30;;
2896;SDS011;1458;49.728;9.228;2023-04-08T03:37:33;0.40;;;0.40;;
2896;SDS011;1458;49.728;9.228;2023-04-08T03:40:01;0.40;;;0.40;;
2896;SDS011;1458;49.728;9.228;2023-04-08T03:42:29;0.40;;;0.40;;
2896;SDS011;1458;49.728;9.228;2023-04-08T03:44:56;0.30;;;0.30;;
2896;SDS011;1458;49.728;9.228;2023-04-08T03:47:24;0.40;;;0.40;;
2896;SDS011;1458;49.728;9.228;2023-04-08T03:49:51;0.40;;;0.40;;
2896;SDS011;1458;49.728;9.228;2023-04-08T03:52:19;0.40;;;0.40;;
2896;SDS011;1458;49.728;9.228;2023-04-08T03:54:50;0.30;;;0.30;;
2896;SDS011;1458;49.728;9.228;2023-04-08T03:57:17;0.40;;;0.40;;
2896;SDS011;1458;49.728;9.228;2023-04-08T03:59:44;0.30;;;0.30;;
2896;SDS011;1458;49.728;9.228;2023-04-08T04:02:12;0.40;;;0.40;;
2896;SDS011;1458;49.728;9.228;2023-04-08T04:04:41;0.30;;;0.30;;
2896;SDS011;1458;49.728;9.228;2023-04-08T04:07:08;0.40;;;0.40;;
2896;SDS011;1458;49.728;9.228;2023-04-08T04:09:35;0.40;;;0.40;;
2896;SDS011;1458;49.728;9.228;2023-04-08T04:12:04;0.40;;;0.40;;
2896;SDS011;1458;49.728;9.228;2023-04-08T04:14:32;0.40;;;0.40;;
2896;SDS011;1458;49.728;9.228;2023-04-08T04:16:59;0.40;;;0.40;;
2896;SDS011;1458;49.728;9.228;2023-04-08T04:19:28;0.40;;;0.40;;
2896;SDS011;1458;49.728;9.228;2023-04-08T04:21:56;0.40;;;0.40;;
2896;SDS011;1458;49.728;9.228;2023-04-08T04:24:24;0.40;;;0.40;;
2896;SDS011;1458;49.728;9.228;2023-04-08T04:26:51;0.30;;;0.30;;
2896;SDS011;1458;49.728;9.228;2023-04-08T04:29:20;0.30;;;0.30;;
2896;SDS011;1458;49.728;9.228;2023-04-08T04:31:47;0.30;;;0.30;;
2896;SDS011;1458;49.728;9.228;2023-04-08T04:34:15;0.40;;;0.40;;
2896;SDS011;1458;49.728;9.228;2023-04-08T04:36:42;0.30;;;0.30;;
2896;SDS011;1458;49.728;9.228;2023-04-08T04:39:10;0.30;;;0.30;;
2896;SDS011;1458;49.728;9.228;2023-04-08T04:41:37;0.40;;;0.40;;
2896;SDS011;1458;49.728;9.228;2023-04-08T04:44:04;0.50;;;0.50;;
2896;SDS011;1458;49.728;9.228;2023-04-08T04:46:33;0.40;;;0.40;;
2896;SDS011;1458;49.728;9.228;2023-04-08T04:49:01;0.40;;;0.40;;
2896;SDS011;1458;49.728;9.228;2023-04-08T04:51:31;0.40;;;0.40;;
2896;SDS011;1458;49.728;9.228;2023-04-08T04:53:59;0.40;;;0.40;;
2896;SDS011;1458;49.728;9.228;2023-04-08T04:56:26;0.50;;;0.50;;
2896;SDS011;1458;49.728;9.228;2023-04-08T04:58:54;0.40;;;0.40;;
2896;SDS011;1458;49.728;9.228;2023-04-08T05:01:21;0.40;;;0.40;;
2896;SDS011;1458;49.728;9.228;2023-04-08T05:03:50;0.40;;;0.40;;
2896;SDS011;1458;49.728;9.228;2023-04-08T05:06:17;0.30;;;0.30;;
2896;SDS011;1458;49.728;9.228;2023-04-08T05:08:45;0.40;;;0.40;;
2896;SDS011;1458;49.728;9.228;2023-04-08T05:11:12;0.40;;;0.40;;
2896;SDS011;1458;49.728;9.228;2023-04-08T05:13:42;0.40;;;0.40;;
2896;SDS011;1458;49.728;9.228;2023-04-08T05:16:10;0.40;;;0.40;;
2896;SDS011;1458;49.728;9.228;2023-04-08T05:18:37;0.40;;;0.40;;
2896;SDS011;1458;49.728;9.228;2023-04-08T05:21:06;0.50;;;0.50;;
2896;SDS011;1458;49.728;9.228;2023-04-08T05:23:33;0.30;;;0.30;;
2896;SDS011;1458;49.728;9.228;2023-04-08T05:26:01;0.40;;;0.40;;
2896;SDS011;1458;49.728;9.228;2023-04-08T05:28:28;0.40;;;0.40;;
2896;SDS011;1458;49.728;9.228;2023-04-08T05:30:56;0.40;;;0.40;;
2896;SDS011;1458;49.728;9.228;2023-04-08T05:33:23;0.40;;;0.40;;
2896;SDS011;1458;49.728;9.228;2023-04-08T05:35:51;0.50;;;0.50;;
2896;SDS011;1458;49.728;9.228;2023-04-08T05:38:20;0.40;;;0.40;;
2896;SDS011;1458;49.728;9.228;2023-04-08T05:40:47;0.40;;;0.40;;
2896;SDS011;1458;49.728;9.228;2023-04-08T05:43:14;0.40;;;0.40;;
2896;SDS011;1458;49.728;9.228;2023-04-08T05:45:42;0.40;;;0.40;;
2896;SDS011;1458;49.728;9.228;2023-04-08T05:48:09;0.30;;;0.30;;
2896;SDS011;1458;49.728;9.228;2023-04-08T05:50:37;0.40;;;0.40;;
2896;SDS011;1458;49.728;9.228;2023-04-08T05:53:04;0.40;;;0.40;;
2896;SDS011;1458;49.728;9.228;2023-04-08T05:55:36;0.40;;;0.40;;
2896;SDS011;1458;49.728;9.228;2023-04-08T05:58:03;0.40;;;0.40;;
2896;SDS011;1458;49.728;9.228;2023-04-08T06:00:30;0.40;;;0.40;;
2896;SDS011;1458;49.728;9.228;2023-04-08T06:02:58;0.40;;;0.40;;
2896;SDS011;1458;49.728;9.228;2023-04-08T06:05:26;0.40;;;0.40;;
2896;SDS011;1458;49.728;9.228;2023-04-08T06:07:53;0.40;;;0.40;;
2896;SDS011;1458;49.728;9.228;2023-04-08T06:10:21;0.40;;;0.40;;
2896;SDS011;1458;49.728;9.228;2023-04-08T06:12:50;0.40;;;0.40;;
2896;SDS011;1458;49.728;9.228;2023-04-08T06:15:17;0.40;;;0.40;;
2896;SDS011;1458;49.728;9.228;2023-04-08T06:17:45;0.40;;;0.40;;
2896;SDS011;1458;49.728;9.228;2023-04-08T06:20:12;0.40;;;0.40;;
2896;SDS011;1458;49.728;9.228;2023-04-08T06:22:40;0.40;;;0.40;;
2896;SDS011;1458;49.728;9.228;2023-04-08T06:25:07;0.40;;;0.40;;
2896;SDS011;1458;49.728;9.228;2023-04-08T06:27:38;0.40;;;0.40;;
2896;SDS011;1458;49.728;9.228;2023-04-08T06:30:07;0.40;;;0.40;;
2896;SDS011;1458;49.728;9.228;2023-04-08T06:32:36;0.40;;;0.40;;
2896;SDS011;1458;49.728;9.228;2023-04-08T06:35:03;0.40;;;0.40;;
2896;SDS011;1458;49.728;9.228;2023-04-08T06:37:34;0.43;;;0.43;;
2896;SDS011;1458;49.728;9.228;2023-04-08T06:40:03;0.40;;;0.40;;
2896;SDS011;1458;49.728;9.228;2023-04-08T06:42:32;0.40;;;0.40;;
2896;SDS011;1458;49.728;9.228;2023-04-08T06:45:28;0.40;;;0.40;;
2896;SDS011;1458;49.728;9.228;2023-04-08T06:47:56;0.40;;;0.40;;
2896;SDS011;1458;49.728;9.228;2023-04-08T06:50:23;0.40;;;0.40;;
2896;SDS011;1458;49.728;9.228;2023-04-08T06:52:51;0.40;;;0.40;;
2896;SDS011;1458;49.728;9.228;2023-04-08T06:55:19;0.50;;;0.50;;
2896;SDS011;1458;49.728;9.228;2023-04-08T06:57:49;0.40;;;0.40;;
2896;SDS011;1458;49.728;9.228;2023-04-08T07:00:16;0.40;;;0.40;;
2896;SDS011;1458;49.728;9.228;2023-04-08T07:02:45;0.40;;;0.40;;
2896;SDS011;1458;49.728;9.228;2023-04-08T07:05:13;0.40;;;0.40;;
2896;SDS011;1458;49.728;9.228;2023-04-08T07:07:42;0.40;;;0.40;;
2896;SDS011;1458;49.728;9.228;2023-04-08T07:10:11;0.40;;;0.40;;
2896;SDS011;1458;49.728;9.228;2023-04-08T07:12:43;0.40;;;0.40;;
2896;SDS011;1458;49.728;9.228;2023-04-08T07:15:16;0.30;;;0.30;;
2896;SDS011;1458;49.728;9.228;2023-04-08T07:17:45;0.40;;;0.40;;
2896;SDS011;1458;49.728;9.228;2023-04-08T07:20:13;0.40;;;0.40;;
2896;SDS011;1458;49.728;9.228;2023-04-08T07:22:40;0.40;;;0.40;;
2896;SDS011;1458;49.728;9.228;2023-04-08T07:25:08;0.40;;;0.40;;
2896;SDS011;1458;49.728;9.228;2023-04-08T07:27:36;0.40;;;0.40;;
2896;SDS011;1458;49.728;9.228;2023-04-08T07:30:04;0.40;;;0.40;;
2896;SDS011;1458;49.728;9.228;2023-04-08T07:32:32;0.40;;;0.40;;
2896;SDS011;1458;49.728;9.228;2023-04-08T07:35:02;0.40;;;0.40;;
2896;SDS011;1458;49.728;9.228;2023-04-08T07:37:30;0.50;;;0.50;;
2896;SDS011;1458;49.728;9.228;2023-04-08T07:39:58;0.50;;;0.50;;
2896;SDS011;1458;49.728;9.228;2023-04-08T07:42:26;0.40;;;0.40;;
2896;SDS011;1458;49.728;9.228;2023-04-08T07:44:53;0.40;;;0.40;;
2896;SDS011;1458;49.728;9.228;2023-04-08T07:47:21;0.50;;;0.50;;
2896;SDS011;1458;49.728;9.228;2023-04-08T07:49:48;0.60;;;0.60;;
2896;SDS011;1458;49.728;9.228;2023-04-08T07:52:17;0.60;;;0.60;;
2896;SDS011;1458;49.728;9.228;2023-04-08T07:54:45;0.90;;;0.90;;
2896;SDS011;1458;49.728;9.228;2023-04-08T07:57:12;1.10;;;1.10;;
2896;SDS011;1458;49.728;9.228;2023-04-08T07:59:39;0.80;;;0.80;;
2896;SDS011;1458;49.728;9.228;2023-04-08T08:02:07;1.00;;;1.00;;
2896;SDS011;1458;49.728;9.228;2023-04-08T08:04:35;1.00;;;1.00;;
2896;SDS011;1458;49.728;9.228;2023-04-08T08:07:02;1.10;;;1.10;;
2896;SDS011;1458;49.728;9.228;2023-04-08T08:09:31;1.30;;;1.30;;
2896;SDS011;1458;49.728;9.228;2023-04-08T08:11:59;1.50;;;1.50;;
2896;SDS011;1458;49.728;9.228;2023-04-08T08:14:26;1.50;;;1.50;;
2896;SDS011;1458;49.728;9.228;2023-04-08T08:16:53;1.70;;;1.70;;
2896;SDS011;1458;49.728;9.228;2023-04-08T08:19:21;1.83;;;1.83;;
2896;SDS011;1458;49.728;9.228;2023-04-08T08:21:48;1.90;;;1.90;;
2896;SDS011;1458;49.728;9.228;2023-04-08T08:24:16;2.40;;;2.40;;
2896;SDS011;1458;49.728;9.228;2023-04-08T08:26:45;2.20;;;2.20;;
2896;SDS011;1458;49.728;9.228;2023-04-08T08:29:13;2.50;;;2.50;;
2896;SDS011;1458;49.728;9.228;2023-04-08T08:31:41;3.00;;;3.00;;
2896;SDS011;1458;49.728;9.228;2023-04-08T08:34:08;3.27;;;3.27;;
2896;SDS011;1458;49.728;9.228;2023-04-08T08:36:35;3.03;;;3.03;;
2896;SDS011;1458;49.728;9.228;2023-04-08T08:39:03;3.07;;;3.07;;
2896;SDS011;1458;49.728;9.228;2023-04-08T08:41:33;3.20;;;3.20;;
2896;SDS011;1458;49.728;9.228;2023-04-08T08:44:05;2.90;;;2.90;;
2896;SDS011;1458;49.728;9.228;2023-04-08T08:46:33;2.80;;;2.80;;
2896;SDS011;1458;49.728;9.228;2023-04-08T08:49:01;2.70;;;2.70;;
2896;SDS011;1458;49.728;9.228;2023-04-08T08:51:29;2.40;;;2.40;;
2896;SDS011;1458;49.728;9.228;2023-04-08T08:54:01;2.20;;;2.20;;
2896;SDS011;1458;49.728;9.228;2023-04-08T08:56:29;2.53;;;2.53;;
2896;SDS011;1458;49.728;9.228;2023-04-08T08:58:59;2.40;;;2.40;;
2896;SDS011;1458;49.728;9.228;2023-04-08T09:01:34;2.30;;;2.30;;
2896;SDS011;1458;49.728;9.228;2023-04-08T09:04:06;2.17;;;2.17;;
2896;SDS011;1458;49.728;9.228;2023-04-08T09:06:36;2.30;;;2.30;;
2896;SDS011;1458;49.728;9.228;2023-04-08T09:09:05;2.30;;;2.30;;
2896;SDS011;1458;49.728;9.228;2023-04-08T09:11:35;2.20;;;2.20;;
2896;SDS011;1458;49.728;9.228;2023-04-08T09:14:05;2.20;;;2.20;;
2896;SDS011;1458;49.728;9.228;2023-04-08T09:16:45;2.00;;;2.00;;
2896;SDS011;1458;49.728;9.228;2023-04-08T09:19:12;2.40;;;2.40;;
2896;SDS011;1458;49.728;9.228;2023-04-08T09:21:40;2.80;;;2.80;;
2896;SDS011;1458;49.728;9.228;2023-04-08T09:24:08;3.40;;;3.40;;
2896;SDS011;1458;49.728;9.228;2023-04-08T09:26:53;4.23;;;4.23;;
2896;SDS011;1458;49.728;9.228;2023-04-08T09:29:20;4.60;;;4.60;;
2896;SDS011;1458;49.728;9.228;2023-04-08T09:31:53;4.43;;;4.43;;
2896;SDS011;1458;49.728;9.228;2023-04-08T09:34:22;4.50;;;4.50;;
2896;SDS011;1458;49.728;9.228;2023-04-08T09:36:50;4.70;;;4.70;;
2896;SDS011;1458;49.728;9.228;2023-04-08T09:39:18;4.33;;;4.33;;
2896;SDS011;1458;49.728;9.228;2023-04-08T09:41:47;4.47;;;4.47;;
2896;SDS011;1458;49.728;9.228;2023-04-08T09:44:15;4.50;;;4.50;;
2896;SDS011;1458;49.728;9.228;2023-04-08T09:46:46;4.60;;;4.60;;
2896;SDS011;1458;49.728;9.228;2023-04-08T09:49:32;4.77;;;4.77;;
2896;SDS011;1458;49.728;9.228;2023-04-08T09:52:05;4.20;;;4.20;;
2896;SDS011;1458;49.728;9.228;2023-04-08T09:54:38;4.00;;;4.00;;
2896;SDS011;1458;49.728;9.228;2023-04-08T09:57:15;4.00;;;4.00;;
2896;SDS011;1458;49.728;9.228;2023-04-08T09:59:48;3.83;;;3.83;;
2896;SDS011;1458;49.728;9.228;2023-04-08T10:02:28;3.70;;;3.70;;
2896;SDS011;1458;49.728;9.228;2023-04-08T10:04:59;3.70;;;3.70;;
2896;SDS011;1458;49.728;9.228;2023-04-08T10:07:30;4.10;;;4.10;;
2896;SDS011;1458;49.728;9.228;2023-04-08T10:09:58;4.63;;;4.63;;
2896;SDS011;1458;49.728;9.228;2023-04-08T10:12:26;4.93;;;4.93;;
2896;SDS011;1458;49.728;9.228;2023-04-08T10:17:52;5.10;;;5.10;;
2896;SDS011;1458;49.728;9.228;2023-04-08T10:23:14;5.70;;;5.70;;
2896;SDS011;1458;49.728;9.228;2023-04-08T10:25:43;6.30;;;6.30;;
2896;SDS011;1458;49.728;9.228;2023-04-08T10:31:00;7.10;;;7.00;;
2896;SDS011;1458;49.728;9.228;2023-04-08T10:33:31;7.60;;;7.50;;
2896;SDS011;1458;49.728;9.228;2023-04-08T10:36:00;7.50;;;7.40;;
2896;SDS011;1458;49.728;9.228;2023-04-08T10:38:35;8.03;;;7.93;;
2896;SDS011;1458;49.728;9.228;2023-04-08T10:41:03;8.03;;;7.93;;
2896;SDS011;1458;49.728;9.228;2023-04-08T10:43:31;8.20;;;8.10;;
2896;SDS011;1458;49.728;9.228;2023-04-08T10:45:59;8.80;;;8.60;;
2896;SDS011;1458;49.728;9.228;2023-04-08T10:48:27;8.93;;;8.73;;
2896;SDS011;1458;49.728;9.228;2023-04-08T10:50:57;9.23;;;9.03;;
2896;SDS011;1458;49.728;9.228;2023-04-08T10:53:25;8.40;;;8.30;;
2896;SDS011;1458;49.728;9.228;2023-04-08T10:55:54;9.20;;;9.00;;
2896;SDS011;1458;49.728;9.228;2023-04-08T10:58:30;8.97;;;8.77;;
2896;SDS011;1458;49.728;9.228;2023-04-08T11:01:02;8.50;;;8.40;;
2896;SDS011;1458;49.728;9.228;2023-04-08T11:03:31;9.23;;;9.03;;
2896;SDS011;1458;49.728;9.228;2023-04-08T11:06:00;9.70;;;9.50;;
2896;SDS011;1458;49.728;9.228;2023-04-08T11:08:29;9.57;;;9.37;;
2896;SDS011;1458;49.728;9.228;2023-04-08T11:10:57;9.70;;;9.50;;
2896;SDS011;1458;49.728;9.228;2023-04-08T11:13:26;9.50;;;9.30;;
2896;SDS011;1458;49.728;9.228;2023-04-08T11:15:53;9.90;;;9.70;;
2896;SDS011;1458;49.728;9.228;2023-04-08T11:18:21;9.73;;;9.53;;
2896;SDS011;1458;49.728;9.228;2023-04-08T11:20:49;10.17;;;9.97;;
2896;SDS011;1458;49.728;9.228;2023-04-08T11:23:19;9.80;;;9.60;;
2896;SDS011;1458;49.728;9.228;2023-04-08T11:25:47;9.50;;;9.30;;
2896;SDS011;1458;49.728;9.228;2023-04-08T11:28:15;10.10;;;9.90;;
2896;SDS011;1458;49.728;9.228;2023-04-08T11:30:43;10.00;;;9.80;;
2896;SDS011;1458;49.728;9.228;2023-04-08T11:33:12;10.00;;;9.80;;
2896;SDS011;1458;49.728;9.228;2023-04-08T11:35:41;9.70;;;9.50;;
2896;SDS011;1458;49.728;9.228;2023-04-08T11:38:09;9.77;;;9.57;;
2896;SDS011;1458;49.728;9.228;2023-04-08T11:40:39;9.40;;;9.20;;
2896;SDS011;1458;49.728;9.228;2023-04-08T11:43:09;9.40;;;9.20;;
2896;SDS011;1458;49.728;9.228;2023-04-08T11:45:39;9.13;;;8.93;;
2896;SDS011;1458;49.728;9.228;2023-04-08T11:48:11;9.30;;;9.10;;
2896;SDS011;1458;49.728;9.228;2023-04-08T11:50:40;8.90;;;8.70;;
2896;SDS011;1458;49.728;9.228;2023-04-08T11:53:16;8.80;;;8.70;;
2896;SDS011;1458;49.728;9.228;2023-04-08T11:55:46;8.63;;;8.50;;
2896;SDS011;1458;49.728;9.228;2023-04-08T11:58:14;8.47;;;8.37;;
2896;SDS011;1458;49.728;9.228;2023-04-08T12:00:42;8.60;;;8.50;;
2896;SDS011;1458;49.728;9.228;2023-04-08T12:03:11;8.33;;;8.23;;
2896;SDS011;1458;49.728;9.228;2023-04-08T12:05:41;8.40;;;8.30;;
2896;SDS011;1458;49.728;9.228;2023-04-08T12:08:09;8.50;;;8.40;;
2896;SDS011;1458;49.728;9.228;2023-04-08T12:10:36;8.30;;;8.20;;
2896;SDS011;1458;49.728;9.228;2023-04-08T12:13:05;8.90;;;8.70;;
2896;SDS011;1458;49.728;9.228;2023-04-08T12:15:32;9.10;;;8.90;;
2896;SDS011;1458;49.728;9.228;2023-04-08T12:18:00;9.40;;;9.20;;
2896;SDS011;1458;49.728;9.228;2023-04-08T12:20:27;9.40;;;9.20;;
2896;SDS011;1458;49.728;9.228;2023-04-08T12:22:55;9.70;;;9.50;;
2896;SDS011;1458;49.728;9.228;2023-04-08T12:25:22;9.67;;;9.47;;
2896;SDS011;1458;49.728;9.228;2023-04-08T12:27:50;9.60;;;9.40;;
2896;SDS011;1458;49.728;9.228;2023-04-08T12:30:19;9.47;;;9.27;;
2896;SDS011;1458;49.728;9.228;2023-04-08T12:32:46;10.03;;;9.83;;
2896;SDS011;1458;49.728;9.228;2023-04-08T12:35:14;9.77;;;9.57;;
2896;SDS011;1458;49.728;9.228;2023-04-08T12:37:41;9.83;;;9.63;;
2896;SDS011;1458;49.728;9.228;2023-04-08T12:40:08;9.97;;;9.77;;
2896;SDS011;1458;49.728;9.228;2023-04-08T12:42:36;10.20;;;10.00;;
2896;SDS011;1458;49.728;9.228;2023-04-08T12:45:04;10.30;;;10.10;;
2896;SDS011;1458;49.728;9.228;2023-04-08T12:47:34;10.70;;;10.40;;
2896;SDS011;1458;49.728;9.228;2023-04-08T12:50:02;10.30;;;10.10;;
2896;SDS011;1458;49.728;9.228;2023-04-08T12:52:30;10.30;;;10.10;;
2896;SDS011;1458;49.728;9.228;2023-04-08T12:54:58;10.40;;;10.20;;
2896;SDS011;1458;49.728;9.228;2023-04-08T12:57:26;10.40;;;10.20;;
2896;SDS011;1458;49.728;9.228;2023-04-08T12:59:53;10.60;;;10.30;;
2896;SDS011;1458;49.728;9.228;2023-04-08T13:02:21;10.57;;;10.27;;
2896;SDS011;1458;49.728;9.228;2023-04-08T13:04:51;10.30;;;10.10;;
2896;SDS011;1458;49.728;9.228;2023-04-08T13:07:19;10.20;;;10.00;;
2896;SDS011;1458;49.728;9.228;2023-04-08T13:09:47;9.70;;;9.50;;
2896;SDS011;1458;49.728;9.228;2023-04-08T13:12:15;10.00;;;9.80;;
2896;SDS011;1458;49.728;9.228;2023-04-08T13:14:43;10.20;;;10.00;;
2896;SDS011;1458;49.728;9.228;2023-04-08T13:17:10;10.13;;;9.93;;
2896;SDS011;1458;49.728;9.228;2023-04-08T13:19:38;10.23;;;10.03;;
2896;SDS011;1458;49.728;9.228;2023-04-08T13:22:07;10.07;;;9.87;;
2896;SDS011;1458;49.728;9.228;2023-04-08T13:24:34;9.70;;;9.50;;
2896;SDS011;1458;49.728;9.228;2023-04-08T13:27:02;9.50;;;9.30;;
2896;SDS011;1458;49.728;9.228;2023-04-08T13:29:29;9.70;;;9.50;;
2896;SDS011;1458;49.728;9.228;2023-04-08T13:31:56;9.70;;;9.50;;
2896;SDS011;1458;49.728;9.228;2023-04-08T13:34:25;9.90;;;9.70;;
2896;SDS011;1458;49.728;9.228;2023-04-08T13:36:53;10.20;;;10.00;;
2896;SDS011;1458;49.728;9.228;2023-04-08T13:39:22;9.80;;;9.60;;
2896;SDS011;1458;49.728;9.228;2023-04-08T13:41:49;9.80;;;9.60;;
2896;SDS011;1458;49.728;9.228;2023-04-08T13:44:17;9.60;;;9.40;;
2896;SDS011;1458;49.728;9.228;2023-04-08T13:46:44;9.50;;;9.30;;
2896;SDS011;1458;49.728;9.228;2023-04-08T13:49:11;9.50;;;9.30;;
2896;SDS011;1458;49.728;9.228;2023-04-08T13:51:40;9.80;;;9.60;;
2896;SDS011;1458;49.728;9.228;2023-04-08T13:54:07;9.50;;;9.30;;
2896;SDS011;1458;49.728;9.228;2023-04-08T13:56:36;9.80;;;9.60;;
2896;SDS011;1458;49.728;9.228;2023-04-08T13:59:04;9.93;;;9.73;;
2896;SDS011;1458;49.728;9.228;2023-04-08T14:01:31;9.67;;;9.47;;
2896;SDS011;1458;49.728;9.228;2023-04-08T14:03:59;9.60;;;9.40;;
2896;SDS011;1458;49.728;9.228;2023-04-08T14:06:26;9.20;;;9.00;;
2896;SDS011;1458;49.728;9.228;2023-04-08T14:08:54;9.60;;;9.40;;
2896;SDS011;1458;49.728;9.228;2023-04-08T14:11:21;9.40;;;9.20;;
2896;SDS011;1458;49.728;9.228;2023-04-08T14:13:50;9.37;;;9.17;;
2896;SDS011;1458;49.728;9.228;2023-04-08T14:16:17;9.50;;;9.30;;
2896;SDS011;1458;49.728;9.228;2023-04-08T14:18:45;9.10;;;8.90;;
2896;SDS011;1458;49.728;9.228;2023-04-08T14:21:12;9.00;;;8.80;;
2896;SDS011;1458;49.728;9.228;2023-04-08T14:23:42;8.90;;;8.70;;
2896;SDS011;1458;49.728;9.228;2023-04-08T14:26:10;8.30;;;8.20;;
2896;SDS011;1458;49.728;9.228;2023-04-08T14:28:38;8.60;;;8.50;;
2896;SDS011;1458;49.728;9.228;2023-04-08T14:31:07;9.00;;;8.80;;
2896;SDS011;1458;49.728;9.228;2023-04-08T14:33:34;8.50;;;8.40;;
2896;SDS011;1458;49.728;9.228;2023-04-08T14:36:03;7.80;;;7.70;;
2896;SDS011;1458;49.728;9.228;2023-04-08T14:38:31;7.87;;;7.77;;
2896;SDS011;1458;49.728;9.228;2023-04-08T14:40:58;8.00;;;7.90;;
2896;SDS011;1458;49.728;9.228;2023-04-08T14:43:26;8.30;;;8.20;;
2896;SDS011;1458;49.728;9.228;2023-04-08T14:45:53;7.93;;;7.83;;
2896;SDS011;1458;49.728;9.228;2023-04-08T14:48:22;7.93;;;7.83;;
2896;SDS011;1458;49.728;9.228;2023-04-08T14:50:50;8.00;;;7.90;;
2896;SDS011;1458;49.728;9.228;2023-04-08T14:53:18;8.00;;;7.90;;
2896;SDS011;1458;49.728;9.228;2023-04-08T14:55:45;7.70;;;7.60;;
2896;SDS011;1458;49.728;9.228;2023-04-08T14:58:13;8.00;;;7.90;;
2896;SDS011;1458;49.728;9.228;2023-04-08T15:00:40;8.20;;;8.10;;
2896;SDS011;1458;49.728;9.228;2023-04-08T15:03:10;8.20;;;8.10;;
2896;SDS011;1458;49.728;9.228;2023-04-08T15:05:39;8.60;;;8.50;;
2896;SDS011;1458;49.728;9.228;2023-04-08T15:08:07;7.60;;;7.50;;
2896;SDS011;1458;49.728;9.228;2023-04-08T15:10:35;7.20;;;7.10;;
2896;SDS011;1458;49.728;9.228;2023-04-08T15:13:02;7.43;;;7.33;;
2896;SDS011;1458;49.728;9.228;2023-04-08T15:15:30;7.60;;;7.50;;
2896;SDS011;1458;49.728;9.228;2023-04-08T15:17:57;7.57;;;7.47;;
2896;SDS011;1458;49.728;9.228;2023-04-08T15:20:25;7.90;;;7.80;;
2896;SDS011;1458;49.728;9.228;2023-04-08T15:22:54;7.53;;;7.43;;
2896;SDS011;1458;49.728;9.228;2023-04-08T15:25:21;7.93;;;7.83;;
2896;SDS011;1458;49.728;9.228;2023-04-08T15:27:49;7.60;;;7.50;;
2896;SDS011;1458;49.728;9.228;2023-04-08T15:30:16;7.80;;;7.70;;
2896;SDS011;1458;49.728;9.228;2023-04-08T15:32:48;7.90;;;7.80;;